createdAt,value
2022-10-12T00:02:38.081Z,11.76
2022-10-12T00:05:43.980Z,11.75
2022-10-12T00:08:51.625Z,11.73
2022-10-12T00:11:57.490Z,11.68
2022-10-12T00:15:03.740Z,11.63
2022-10-12T00:18:10.177Z,11.57
2022-10-12T00:21:18.252Z,11.52
2022-10-12T00:24:24.160Z,11.50
2022-10-12T00:27:30.299Z,11.49
2022-10-12T00:30:41.020Z,11.46
2022-10-12T00:33:48.204Z,11.46
2022-10-12T00:36:56.402Z,11.46
2022-10-12T00:40:02.553Z,11.47
2022-10-12T00:43:29.649Z,11.46
2022-10-12T00:46:42.662Z,11.43
2022-10-12T00:49:51.684Z,11.42
2022-10-12T00:53:03.296Z,11.39
2022-10-12T00:56:14.462Z,11.34
2022-10-12T00:59:23.787Z,11.30
2022-10-12T01:02:33.474Z,11.27
2022-10-12T01:05:42.755Z,11.24
2022-10-12T01:08:49.880Z,11.25
2022-10-12T01:11:57.857Z,11.24
2022-10-12T01:15:04.334Z,11.23
2022-10-12T01:18:16.063Z,11.21
2022-10-12T01:21:23.895Z,11.19
2022-10-12T01:24:52.026Z,11.18
2022-10-12T01:28:03.432Z,11.17
2022-10-12T01:31:15.818Z,11.15
2022-10-12T01:34:29.697Z,11.12
2022-10-12T01:37:47.910Z,11.10
2022-10-12T01:41:03.348Z,11.07
2022-10-12T01:44:09.498Z,11.04
2022-10-12T01:47:16.993Z,10.97
2022-10-12T01:50:28.241Z,10.90
2022-10-12T01:53:41.807Z,10.86
2022-10-12T01:56:55.539Z,10.81
2022-10-12T02:00:08.280Z,10.77
2022-10-12T02:03:22.184Z,10.73
2022-10-12T02:06:33.912Z,10.69
2022-10-12T02:09:41.346Z,10.67
2022-10-12T02:12:50.937Z,10.68
2022-10-12T02:16:00.247Z,10.68
2022-10-12T02:19:10.913Z,10.69
2022-10-12T02:22:18.992Z,10.69
2022-10-12T02:25:27.744Z,10.69
2022-10-12T02:28:37.514Z,10.68
2022-10-12T02:31:53.730Z,10.66
2022-10-12T02:35:02.942Z,10.65
2022-10-12T02:38:15.861Z,10.60
2022-10-12T02:41:28.062Z,10.60
2022-10-12T02:44:38.519Z,10.60
2022-10-12T02:47:47.261Z,10.59
2022-10-12T02:50:57.118Z,10.57
2022-10-12T02:54:04.389Z,10.54
2022-10-12T02:57:11.162Z,10.51
2022-10-12T03:00:19.517Z,10.49
2022-10-12T03:03:25.702Z,10.45
2022-10-12T03:06:31.746Z,10.42
2022-10-12T03:09:37.816Z,10.37
2022-10-12T03:12:49.106Z,10.33
2022-10-12T03:16:02.071Z,10.26
2022-10-12T03:19:08.275Z,10.18
2022-10-12T03:22:14.316Z,10.12
2022-10-12T03:25:20.456Z,10.06
2022-10-12T03:28:26.666Z,9.98
2022-10-12T03:31:31.323Z,9.88
2022-10-12T03:34:37.381Z,9.78
2022-10-12T03:37:43.535Z,9.72
2022-10-12T03:40:49.980Z,9.66
2022-10-12T03:43:56.015Z,9.59
2022-10-12T03:47:02.071Z,9.52
2022-10-12T03:50:09.554Z,9.45
2022-10-12T03:53:15.724Z,9.42
2022-10-12T03:56:21.759Z,9.42
2022-10-12T03:59:28.636Z,9.43
2022-10-12T04:02:34.704Z,9.43
2022-10-12T04:05:41.055Z,9.43
2022-10-12T04:08:49.929Z,9.40
2022-10-12T04:11:57.088Z,9.34
2022-10-12T04:15:03.448Z,9.32
2022-10-12T04:18:08.045Z,9.29
2022-10-12T04:21:16.479Z,9.22
2022-10-12T04:24:22.607Z,9.20
2022-10-12T04:27:28.800Z,9.17
2022-10-12T04:30:34.891Z,9.13
2022-10-12T04:33:41.161Z,9.10
2022-10-12T04:36:47.275Z,9.07
2022-10-12T04:39:53.380Z,9.05
2022-10-12T04:42:59.435Z,9.03
2022-10-12T04:46:05.645Z,9.03
2022-10-12T04:49:11.780Z,9.00
2022-10-12T04:52:17.750Z,8.96
2022-10-12T04:55:24.062Z,8.94
2022-10-12T04:58:29.006Z,8.94
2022-10-12T05:01:35.165Z,8.92
2022-10-12T05:04:41.365Z,8.93
2022-10-12T05:07:47.656Z,8.90
2022-10-12T05:10:52.281Z,8.86
2022-10-12T05:13:58.493Z,8.81
2022-10-12T05:17:04.674Z,8.82
2022-10-12T05:20:13.498Z,8.81
2022-10-12T05:23:19.571Z,8.79
2022-10-12T05:26:25.914Z,8.78
2022-10-12T05:29:30.400Z,8.76
2022-10-12T05:32:36.833Z,8.75
2022-10-12T05:35:47.481Z,8.78
2022-10-12T05:38:55.067Z,8.80
2022-10-12T05:42:01.179Z,8.82
2022-10-12T05:45:08.947Z,8.85
2022-10-12T05:48:15.311Z,8.88
2022-10-12T05:51:19.886Z,8.89
2022-10-12T05:54:26.153Z,8.89
2022-10-12T05:57:32.420Z,8.95
2022-10-12T06:00:39.051Z,8.99
2022-10-12T06:03:45.202Z,8.98
2022-10-12T06:06:51.365Z,8.98
2022-10-12T06:09:57.461Z,8.99
2022-10-12T06:13:03.850Z,9.01
2022-10-12T06:16:10.600Z,9.04
2022-10-12T06:19:16.780Z,9.07
2022-10-12T06:22:22.823Z,9.10
2022-10-12T06:25:29.224Z,9.12
2022-10-12T06:28:35.573Z,9.15
2022-10-12T06:31:40.219Z,9.20
2022-10-12T06:34:46.959Z,9.22
2022-10-12T06:37:54.016Z,9.28
2022-10-12T06:41:00.720Z,9.34
2022-10-12T06:44:07.136Z,9.41
2022-10-12T06:47:13.315Z,9.49
2022-10-12T06:50:19.642Z,9.57
2022-10-12T06:53:25.684Z,9.64
2022-10-12T06:56:32.263Z,9.71
2022-10-12T06:59:38.384Z,9.83
2022-10-12T07:02:44.928Z,9.96
2022-10-12T07:05:51.020Z,10.07
2022-10-12T07:08:58.050Z,10.17
2022-10-12T07:12:04.193Z,10.24
2022-10-12T07:15:11.928Z,10.31
2022-10-12T07:18:17.964Z,10.38
2022-10-12T07:21:24.062Z,10.47
2022-10-12T07:24:36.529Z,10.52
2022-10-12T07:27:42.559Z,10.54
2022-10-12T07:30:48.870Z,10.56
2022-10-12T07:33:53.352Z,10.60
2022-10-12T07:37:00.130Z,10.63
2022-10-12T07:40:07.495Z,10.73
2022-10-12T07:43:16.063Z,10.82
2022-10-12T07:46:22.691Z,10.92
2022-10-12T07:49:28.953Z,11.03
2022-10-12T07:52:35.808Z,11.15
2022-10-12T07:55:42.052Z,11.25
2022-10-12T07:58:51.357Z,11.36
2022-10-12T08:01:57.570Z,11.46
2022-10-12T08:05:03.764Z,11.57
2022-10-12T08:08:10.013Z,11.68
2022-10-12T08:11:14.782Z,11.77
2022-10-12T08:14:21.011Z,11.85
2022-10-12T08:17:27.538Z,11.98
2022-10-12T08:20:33.783Z,12.11
2022-10-12T08:23:40.239Z,12.25
2022-10-12T08:26:46.318Z,12.40
2022-10-12T08:29:52.450Z,12.56
2022-10-12T08:32:58.597Z,12.71
2022-10-12T08:36:06.691Z,12.86
2022-10-12T08:39:12.840Z,13.02
2022-10-12T08:42:35.367Z,13.17
2022-10-12T08:45:49.192Z,13.34
2022-10-12T08:49:02.977Z,13.48
2022-10-12T08:52:22.818Z,13.61
2022-10-12T08:55:38.094Z,13.73
2022-10-12T08:58:45.636Z,13.85
2022-10-12T09:02:04.228Z,14.00
2022-10-12T09:05:16.275Z,14.20
2022-10-12T09:08:33.591Z,14.40
2022-10-12T09:11:53.167Z,14.57
2022-10-12T09:15:03.668Z,14.67
2022-10-12T09:18:20.330Z,14.74
2022-10-12T09:21:28.540Z,14.84
2022-10-12T09:24:39.398Z,14.93
2022-10-12T09:27:48.286Z,15.03
2022-10-12T09:31:17.984Z,14.84
2022-10-12T09:34:24.843Z,14.35
2022-10-12T09:37:33.704Z,14.20
2022-10-12T09:40:40.478Z,14.61
2022-10-12T09:43:46.905Z,14.97
2022-10-12T09:46:57.516Z,15.15
2022-10-12T09:50:05.750Z,14.80
2022-10-12T09:53:28.857Z,14.37
2022-10-12T09:56:41.800Z,14.23
2022-10-12T09:59:48.486Z,14.59
2022-10-12T10:02:55.712Z,14.88
2022-10-12T10:06:07.504Z,15.09
2022-10-12T10:09:33.587Z,15.21
2022-10-12T10:12:44.231Z,14.84
2022-10-12T10:15:52.086Z,14.57
2022-10-12T10:19:03.148Z,14.89
2022-10-12T10:22:09.379Z,15.21
2022-10-12T10:25:21.071Z,15.44
2022-10-12T10:28:31.841Z,15.21
2022-10-12T10:31:38.078Z,14.80
2022-10-12T10:34:43.820Z,14.65
2022-10-12T10:37:50.679Z,14.98
2022-10-12T10:40:58.685Z,15.37
2022-10-12T10:44:06.348Z,15.70
2022-10-12T10:47:14.659Z,15.62
2022-10-12T10:50:31.897Z,15.30
2022-10-12T10:53:49.832Z,15.08
2022-10-12T10:57:03.383Z,14.97
2022-10-12T11:03:52.386Z,14.98
2022-10-12T11:07:03.027Z,15.04
2022-10-12T11:10:22.015Z,15.12
2022-10-12T11:13:34.005Z,15.17
2022-10-12T11:16:45.097Z,15.18
2022-10-12T11:19:57.064Z,15.21
2022-10-12T11:23:10.810Z,15.30
2022-10-12T11:26:24.154Z,15.35
2022-10-12T11:29:30.823Z,15.33
2022-10-12T11:32:41.890Z,15.30
2022-10-12T11:35:49.015Z,15.32
2022-10-12T11:39:05.895Z,15.35
2022-10-12T11:42:22.147Z,15.40
2022-10-12T11:45:31.838Z,15.48
2022-10-12T11:48:43.431Z,15.59
2022-10-12T11:51:52.627Z,15.68
2022-10-12T11:55:09.508Z,15.71
2022-10-12T11:58:31.553Z,15.77
2022-10-12T12:02:04.791Z,15.82
2022-10-12T12:05:16.685Z,15.86
2022-10-12T12:09:19.212Z,15.93
2022-10-12T12:12:27.696Z,16.00
2022-10-12T12:15:34.184Z,16.04
2022-10-12T12:19:13.327Z,16.03
2022-10-12T12:22:49.156Z,15.99
2022-10-12T12:26:16.803Z,16.00
2022-10-12T12:29:30.033Z,16.04
2022-10-12T12:32:49.557Z,16.05
2022-10-12T12:35:58.552Z,16.01
2022-10-12T12:39:06.090Z,15.99
2022-10-12T12:42:12.761Z,15.98
2022-10-12T12:45:54.476Z,15.94
2022-10-12T12:49:26.839Z,15.90
2022-10-12T12:52:35.361Z,15.88
2022-10-12T12:56:04.561Z,15.85
2022-10-12T12:59:35.108Z,15.85
2022-10-12T13:03:04.650Z,15.88
2022-10-12T13:06:40.263Z,15.88
2022-10-12T13:10:08.951Z,15.87
2022-10-12T13:13:44.308Z,15.90
2022-10-12T13:17:31.126Z,15.92
2022-10-12T13:20:28.190Z,15.92
2022-10-12T13:23:35.053Z,15.88
2022-10-12T13:26:42.324Z,15.82
2022-10-12T13:29:55.014Z,15.79
2022-10-12T13:33:07.778Z,15.72
2022-10-12T13:36:19.511Z,15.65
2022-10-12T13:39:25.739Z,15.59
2022-10-12T13:42:36.038Z,15.53
2022-10-12T13:45:48.198Z,15.47
2022-10-12T13:48:59.795Z,15.41
2022-10-12T13:52:31.821Z,15.38
2022-10-12T13:55:38.716Z,15.35
2022-10-12T13:58:45.113Z,15.34
2022-10-12T14:02:00.902Z,15.31
2022-10-12T14:05:08.434Z,15.27
2022-10-12T14:08:20.729Z,15.28
2022-10-12T14:11:27.915Z,15.25
2022-10-12T14:14:37.722Z,15.22
2022-10-12T14:17:47.798Z,15.19
2022-10-12T14:21:05.735Z,15.14
2022-10-12T14:24:12.741Z,15.09
2022-10-12T14:27:26.116Z,15.05
2022-10-12T14:30:34.435Z,15.00
2022-10-12T14:33:40.582Z,14.95
2022-10-12T14:36:45.259Z,14.90
2022-10-12T14:39:59.519Z,14.85
2022-10-12T14:43:09.582Z,14.80
2022-10-12T14:46:15.716Z,14.73
2022-10-12T14:49:22.306Z,14.66
2022-10-12T14:52:35.160Z,14.59
2022-10-12T14:55:42.700Z,14.52
2022-10-12T14:58:49.607Z,14.46
2022-10-12T15:01:55.841Z,14.39
2022-10-12T15:05:02.537Z,14.30
2022-10-12T15:08:09.387Z,14.22
2022-10-12T15:11:16.963Z,14.13
2022-10-12T15:14:23.044Z,14.04
2022-10-12T15:17:27.535Z,13.96
2022-10-12T15:20:34.251Z,13.88
2022-10-12T15:23:40.498Z,13.80
2022-10-12T15:26:46.833Z,13.72
2022-10-12T15:29:53.393Z,13.63
2022-10-12T15:32:59.642Z,13.54
2022-10-12T15:36:05.754Z,13.46
2022-10-12T15:39:10.334Z,13.35
2022-10-12T15:42:16.418Z,13.27
2022-10-12T15:45:22.691Z,13.14
2022-10-12T15:48:29.189Z,13.02
2022-10-12T15:51:39.202Z,12.89
2022-10-12T15:54:48.771Z,12.75
2022-10-12T15:57:56.215Z,12.62
2022-10-12T16:01:02.386Z,12.49
2022-10-12T16:04:08.055Z,12.45
2022-10-12T16:07:15.876Z,12.83
2022-10-12T16:10:24.492Z,13.23
2022-10-12T16:13:30.574Z,13.48
2022-10-12T16:16:36.706Z,13.64
2022-10-12T16:19:42.856Z,13.76
2022-10-12T16:22:51.147Z,13.75
2022-10-12T16:25:57.655Z,13.28
2022-10-12T16:29:03.803Z,12.84
2022-10-12T16:32:08.257Z,12.49
2022-10-12T16:35:15.328Z,12.21
2022-10-12T16:38:21.646Z,12.07
2022-10-12T16:41:30.412Z,12.39
2022-10-12T16:44:40.073Z,12.71
2022-10-12T16:47:44.693Z,12.87
2022-10-12T16:50:50.879Z,12.94
2022-10-12T16:53:55.386Z,13.00
2022-10-12T16:57:01.923Z,13.03
2022-10-12T17:00:10.681Z,13.09
2022-10-12T17:03:16.958Z,13.10
2022-10-12T17:06:23.108Z,12.98
2022-10-12T17:09:27.955Z,12.43
2022-10-12T17:12:35.462Z,11.91
2022-10-12T17:15:44.071Z,11.50
2022-10-12T17:18:50.206Z,11.25
2022-10-12T17:21:59.665Z,11.48
2022-10-12T17:25:06.385Z,11.74
2022-10-12T17:28:12.467Z,11.89
2022-10-12T17:31:18.886Z,11.98
2022-10-12T17:34:26.676Z,12.03
2022-10-12T17:37:32.837Z,12.09
2022-10-12T17:40:39.825Z,12.14
2022-10-12T17:43:46.475Z,12.14
2022-10-12T17:46:52.680Z,12.14
2022-10-12T17:49:57.228Z,12.14
2022-10-12T17:53:03.317Z,12.10
2022-10-12T17:56:14.043Z,12.11
2022-10-12T17:59:21.215Z,12.09
2022-10-12T18:02:27.577Z,11.93
2022-10-12T18:05:34.867Z,11.32
2022-10-12T18:08:41.255Z,10.75
2022-10-12T18:11:47.474Z,10.41
2022-10-12T18:14:51.925Z,10.60
2022-10-12T18:17:58.088Z,10.78
2022-10-12T18:21:08.246Z,10.91
2022-10-12T18:24:17.662Z,10.95
2022-10-12T18:27:23.926Z,10.93
2022-10-12T18:30:30.054Z,10.91
2022-10-12T18:33:36.721Z,10.91
2022-10-12T18:36:42.999Z,10.92
2022-10-12T18:39:47.503Z,10.95
2022-10-12T18:42:53.879Z,10.96
2022-10-12T18:45:59.914Z,11.00
2022-10-12T18:49:08.534Z,11.00
2022-10-12T18:52:14.557Z,11.00
2022-10-12T18:55:20.861Z,10.99
2022-10-12T18:58:25.398Z,10.97
2022-10-12T19:01:33.187Z,10.94
2022-10-12T19:04:39.349Z,10.95
2022-10-12T19:07:45.467Z,10.94
2022-10-12T19:10:51.566Z,10.90
2022-10-12T19:14:00.211Z,10.87
2022-10-12T19:17:06.322Z,10.83
2022-10-12T19:20:13.792Z,10.80
2022-10-12T19:23:19.901Z,10.78
2022-10-12T19:26:28.545Z,10.73
2022-10-12T19:29:34.678Z,10.64
2022-10-12T19:32:41.484Z,10.59
2022-10-12T19:35:47.619Z,10.54
2022-10-12T19:38:55.972Z,10.49
2022-10-12T19:42:02.117Z,10.44
2022-10-12T19:45:09.742Z,10.41
2022-10-12T19:48:15.971Z,10.36
2022-10-12T19:51:24.001Z,10.31
2022-10-12T19:54:34.076Z,10.26
2022-10-12T19:57:43.202Z,10.21
2022-10-12T20:00:49.489Z,10.18
2022-10-12T20:03:53.998Z,10.15
2022-10-12T20:07:00.142Z,10.08
2022-10-12T20:10:07.465Z,9.93
2022-10-12T20:13:13.594Z,9.30
2022-10-12T20:16:21.194Z,8.71
2022-10-12T20:19:27.503Z,8.35
2022-10-12T20:22:32.005Z,8.59
2022-10-12T20:25:43.177Z,8.83
2022-10-12T20:28:50.190Z,8.98
2022-10-12T20:31:56.391Z,9.00
2022-10-12T20:35:02.444Z,8.97
2022-10-12T20:38:08.507Z,8.93
2022-10-12T20:41:17.292Z,8.90
2022-10-12T20:44:23.607Z,8.88
2022-10-12T20:47:28.798Z,8.84
2022-10-12T20:50:35.364Z,8.81
2022-10-12T20:53:42.171Z,8.80
2022-10-12T20:56:52.086Z,8.83
2022-10-12T20:59:58.306Z,8.88
2022-10-12T21:03:04.461Z,8.91
2022-10-12T21:06:12.913Z,8.90
2022-10-12T21:09:18.895Z,8.88
2022-10-12T21:12:25.095Z,8.87
2022-10-12T21:15:31.311Z,8.87
2022-10-12T21:18:38.440Z,8.89
2022-10-12T21:21:46.720Z,8.87
2022-10-12T21:24:53.379Z,8.79
2022-10-12T21:27:59.628Z,8.70
2022-10-12T21:31:05.936Z,8.64
2022-10-12T21:34:11.411Z,8.55
2022-10-12T21:37:17.638Z,8.42
2022-10-12T21:40:24.475Z,8.32
2022-10-12T21:43:30.586Z,8.25
2022-10-12T21:46:37.584Z,8.21
2022-10-12T21:49:43.698Z,8.16
2022-10-12T21:52:50.230Z,8.14
2022-10-12T21:55:56.676Z,8.15
2022-10-12T21:59:01.959Z,8.15
2022-10-12T22:02:08.044Z,8.12
2022-10-12T22:05:14.108Z,8.14
2022-10-12T22:08:20.229Z,8.17
2022-10-12T22:11:27.379Z,8.16
2022-10-12T22:14:33.611Z,8.15
2022-10-12T22:17:39.762Z,8.15
2022-10-12T22:20:45.776Z,8.14
2022-10-12T22:23:51.896Z,8.13
2022-10-12T22:26:58.001Z,8.10
2022-10-12T22:30:04.610Z,8.06
2022-10-12T22:33:10.729Z,8.01
2022-10-12T22:36:18.019Z,7.99
2022-10-12T22:39:24.235Z,7.99
2022-10-12T22:42:30.380Z,7.98
2022-10-12T22:45:36.461Z,7.98
2022-10-12T22:48:42.984Z,7.96
2022-10-12T22:51:49.208Z,7.92
2022-10-12T22:54:55.212Z,7.87
2022-10-12T22:58:01.328Z,7.84
2022-10-12T23:01:09.165Z,7.81
2022-10-12T23:04:15.506Z,7.81
2022-10-12T23:07:19.986Z,7.79
2022-10-12T23:10:26.655Z,7.74
2022-10-12T23:13:32.847Z,7.75
2022-10-12T23:16:38.923Z,7.73
2022-10-12T23:19:45.082Z,7.72
2022-10-12T23:22:51.164Z,7.70
2022-10-12T23:26:03.499Z,7.67
2022-10-12T23:29:09.642Z,7.66
2022-10-12T23:32:16.683Z,7.61
2022-10-12T23:35:22.995Z,7.54
2022-10-12T23:38:31.768Z,7.50
2022-10-12T23:41:37.844Z,7.45
2022-10-12T23:44:43.969Z,7.37
2022-10-12T23:47:50.071Z,7.30
2022-10-12T23:50:56.703Z,7.28
2022-10-12T23:54:03.142Z,7.27
2022-10-12T23:57:22.548Z,7.27
